sensor_id;sensor_type;location;lat;lon;timestamp;temperature;humidity
77839;SHT31;67034;43.226;27.932;2023-12-20T00:02:19;4.91;76.06
77839;SHT31;67034;43.226;27.932;2023-12-20T00:04:45;4.91;75.92
77839;SHT31;67034;43.226;27.932;2023-12-20T00:07:10;4.85;75.95
77839;SHT31;67034;43.226;27.932;2023-12-20T00:09:36;4.85;76.06
77839;SHT31;67034;43.226;27.932;2023-12-20T00:12:02;4.90;75.88
77839;SHT31;67034;43.226;27.932;2023-12-20T00:14:29;4.90;75.79
77839;SHT31;67034;43.226;27.932;2023-12-20T00:16:55;4.94;75.81
77839;SHT31;67034;43.226;27.932;2023-12-20T00:19:20;5.00;75.43
77839;SHT31;67034;43.226;27.932;2023-12-20T00:21:46;5.01;75.34
77839;SHT31;67034;43.226;27.932;2023-12-20T00:24:12;5.02;75.10
77839;SHT31;67034;43.226;27.932;2023-12-20T00:26:37;4.94;74.97
77839;SHT31;67034;43.226;27.932;2023-12-20T00:29:03;4.92;74.97
77839;SHT31;67034;43.226;27.932;2023-12-20T00:31:30;4.85;75.00
77839;SHT31;67034;43.226;27.932;2023-12-20T00:33:56;4.77;75.01
77839;SHT31;67034;43.226;27.932;2023-12-20T00:36:22;4.73;75.13
77839;SHT31;67034;43.226;27.932;2023-12-20T00:38:48;4.67;75.20
77839;SHT31;67034;43.226;27.932;2023-12-20T00:41:13;4.66;75.23
77839;SHT31;67034;43.226;27.932;2023-12-20T00:43:39;4.71;75.12
77839;SHT31;67034;43.226;27.932;2023-12-20T00:46:06;4.53;74.86
77839;SHT31;67034;43.226;27.932;2023-12-20T00:48:33;4.35;75.09
77839;SHT31;67034;43.226;27.932;2023-12-20T00:50:59;4.26;75.46
77839;SHT31;67034;43.226;27.932;2023-12-20T00:53:24;4.26;75.69
77839;SHT31;67034;43.226;27.932;2023-12-20T00:55:50;4.31;75.74
77839;SHT31;67034;43.226;27.932;2023-12-20T00:58:16;4.26;75.66
77839;SHT31;67034;43.226;27.932;2023-12-20T01:00:42;4.28;75.76
77839;SHT31;67034;43.226;27.932;2023-12-20T01:03:09;4.22;75.82
77839;SHT31;67034;43.226;27.932;2023-12-20T01:05:36;4.21;76.01
77839;SHT31;67034;43.226;27.932;2023-12-20T01:08:02;4.19;76.01
77839;SHT31;67034;43.226;27.932;2023-12-20T01:10:28;4.25;76.09
77839;SHT31;67034;43.226;27.932;2023-12-20T01:12:55;4.25;76.03
77839;SHT31;67034;43.226;27.932;2023-12-20T01:15:20;4.21;75.84
77839;SHT31;67034;43.226;27.932;2023-12-20T01:17:46;4.15;76.13
77839;SHT31;67034;43.226;27.932;2023-12-20T01:20:13;4.11;76.51
77839;SHT31;67034;43.226;27.932;2023-12-20T01:22:39;4.13;76.54
77839;SHT31;67034;43.226;27.932;2023-12-20T01:25:06;4.13;76.64
77839;SHT31;67034;43.226;27.932;2023-12-20T01:27:32;4.16;76.71
77839;SHT31;67034;43.226;27.932;2023-12-20T01:29:58;4.11;76.54
77839;SHT31;67034;43.226;27.932;2023-12-20T01:32:23;4.11;76.60
77839;SHT31;67034;43.226;27.932;2023-12-20T01:34:49;4.06;76.55
77839;SHT31;67034;43.226;27.932;2023-12-20T01:37:15;4.09;76.64
77839;SHT31;67034;43.226;27.932;2023-12-20T01:39:42;4.09;76.42
77839;SHT31;67034;43.226;27.932;2023-12-20T01:42:07;4.12;76.46
77839;SHT31;67034;43.226;27.932;2023-12-20T01:44:33;4.15;76.43
77839;SHT31;67034;43.226;27.932;2023-12-20T01:46:59;4.12;76.32
77839;SHT31;67034;43.226;27.932;2023-12-20T01:49:25;4.08;76.39
77839;SHT31;67034;43.226;27.932;2023-12-20T01:51:51;4.03;76.61
77839;SHT31;67034;43.226;27.932;2023-12-20T01:54:17;4.03;76.69
77839;SHT31;67034;43.226;27.932;2023-12-20T01:56:46;4.05;76.74
77839;SHT31;67034;43.226;27.932;2023-12-20T01:59:12;4.06;76.87
77839;SHT31;67034;43.226;27.932;2023-12-20T02:01:38;4.11;76.89
77839;SHT31;67034;43.226;27.932;2023-12-20T02:04:04;4.21;76.74
77839;SHT31;67034;43.226;27.932;2023-12-20T02:06:30;4.26;76.67
77839;SHT31;67034;43.226;27.932;2023-12-20T02:08:59;4.25;76.59
77839;SHT31;67034;43.226;27.932;2023-12-20T02:11:25;4.28;76.46
77839;SHT31;67034;43.226;27.932;2023-12-20T02:13:52;4.29;76.47
77839;SHT31;67034;43.226;27.932;2023-12-20T02:16:18;4.28;76.36
77839;SHT31;67034;43.226;27.932;2023-12-20T02:18:44;4.18;76.47
77839;SHT31;67034;43.226;27.932;2023-12-20T02:21:10;4.05;76.49
77839;SHT31;67034;43.226;27.932;2023-12-20T02:23:37;3.87;76.63
77839;SHT31;67034;43.226;27.932;2023-12-20T02:26:04;3.77;76.87
77839;SHT31;67034;43.226;27.932;2023-12-20T02:28:30;3.81;77.14
77839;SHT31;67034;43.226;27.932;2023-12-20T02:30:57;3.91;77.10
77839;SHT31;67034;43.226;27.932;2023-12-20T02:33:23;3.91;76.90
77839;SHT31;67034;43.226;27.932;2023-12-20T02:35:48;3.90;77.07
77839;SHT31;67034;43.226;27.932;2023-12-20T02:38:14;3.87;77.21
77839;SHT31;67034;43.226;27.932;2023-12-20T02:40:41;3.81;77.31
77839;SHT31;67034;43.226;27.932;2023-12-20T02:43:07;3.80;77.58
77839;SHT31;67034;43.226;27.932;2023-12-20T02:45:32;3.84;77.77
77839;SHT31;67034;43.226;27.932;2023-12-20T02:47:58;3.82;77.85
77839;SHT31;67034;43.226;27.932;2023-12-20T02:50:27;3.82;77.78
77839;SHT31;67034;43.226;27.932;2023-12-20T02:52:53;3.73;77.72
77839;SHT31;67034;43.226;27.932;2023-12-20T02:55:18;3.67;77.77
77839;SHT31;67034;43.226;27.932;2023-12-20T02:57:45;3.70;77.89
77839;SHT31;67034;43.226;27.932;2023-12-20T03:00:11;3.70;77.85
77839;SHT31;67034;43.226;27.932;2023-12-20T03:02:37;3.73;77.81
77839;SHT31;67034;43.226;27.932;2023-12-20T03:05:03;3.74;77.71
77839;SHT31;67034;43.226;27.932;2023-12-20T03:07:29;3.78;77.68
77839;SHT31;67034;43.226;27.932;2023-12-20T03:09:55;3.82;77.75
77839;SHT31;67034;43.226;27.932;2023-12-20T03:12:20;3.80;77.65
77839;SHT31;67034;43.226;27.932;2023-12-20T03:14:47;3.80;77.70
77839;SHT31;67034;43.226;27.932;2023-12-20T03:17:13;3.82;77.78
77839;SHT31;67034;43.226;27.932;2023-12-20T03:19:39;3.80;77.56
77839;SHT31;67034;43.226;27.932;2023-12-20T03:22:04;3.64;77.65
77839;SHT31;67034;43.226;27.932;2023-12-20T03:24:30;3.57;77.92
77839;SHT31;67034;43.226;27.932;2023-12-20T03:26:56;3.56;78.02
77839;SHT31;67034;43.226;27.932;2023-12-20T03:29:21;3.63;78.22
77839;SHT31;67034;43.226;27.932;2023-12-20T03:31:48;3.67;78.30
77839;SHT31;67034;43.226;27.932;2023-12-20T03:34:14;3.73;78.44
77839;SHT31;67034;43.226;27.932;2023-12-20T03:36:40;3.84;78.28
77839;SHT31;67034;43.226;27.932;2023-12-20T03:39:06;3.88;78.09
77839;SHT31;67034;43.226;27.932;2023-12-20T03:41:31;3.84;77.92
77839;SHT31;67034;43.226;27.932;2023-12-20T03:43:57;3.67;78.04
77839;SHT31;67034;43.226;27.932;2023-12-20T03:46:23;3.56;78.44
77839;SHT31;67034;43.226;27.932;2023-12-20T03:48:50;3.56;78.74
77839;SHT31;67034;43.226;27.932;2023-12-20T03:51:15;3.57;78.77
77839;SHT31;67034;43.226;27.932;2023-12-20T03:53:41;3.47;78.94
77839;SHT31;67034;43.226;27.932;2023-12-20T03:56:07;3.47;79.09
77839;SHT31;67034;43.226;27.932;2023-12-20T03:58:33;3.53;79.17
77839;SHT31;67034;43.226;27.932;2023-12-20T04:00:58;3.52;79.21
77839;SHT31;67034;43.226;27.932;2023-12-20T04:03:24;3.50;79.33
77839;SHT31;67034;43.226;27.932;2023-12-20T04:05:51;3.56;79.43
77839;SHT31;67034;43.226;27.932;2023-12-20T04:08:17;3.60;79.32
77839;SHT31;67034;43.226;27.932;2023-12-20T04:10:43;3.63;79.28
77839;SHT31;67034;43.226;27.932;2023-12-20T04:13:08;3.61;79.28
77839;SHT31;67034;43.226;27.932;2023-12-20T04:15:34;3.61;79.31
77839;SHT31;67034;43.226;27.932;2023-12-20T04:18:00;3.59;79.31
77839;SHT31;67034;43.226;27.932;2023-12-20T04:20:25;3.59;79.32
77839;SHT31;67034;43.226;27.932;2023-12-20T04:22:53;3.61;79.32
77839;SHT31;67034;43.226;27.932;2023-12-20T04:25:18;3.59;79.40
77839;SHT31;67034;43.226;27.932;2023-12-20T04:27:44;3.63;79.44
77839;SHT31;67034;43.226;27.932;2023-12-20T04:30:10;3.63;79.34
77839;SHT31;67034;43.226;27.932;2023-12-20T04:32:36;3.67;79.42
77839;SHT31;67034;43.226;27.932;2023-12-20T04:35:01;3.73;79.28
77839;SHT31;67034;43.226;27.932;2023-12-20T04:37:27;3.75;79.30
77839;SHT31;67034;43.226;27.932;2023-12-20T04:39:54;3.78;79.13
77839;SHT31;67034;43.226;27.932;2023-12-20T04:42:20;3.80;79.02
77839;SHT31;67034;43.226;27.932;2023-12-20T04:44:45;3.80;78.92
77839;SHT31;67034;43.226;27.932;2023-12-20T04:47:11;3.77;78.91
77839;SHT31;67034;43.226;27.932;2023-12-20T04:49:37;3.77;79.03
77839;SHT31;67034;43.226;27.932;2023-12-20T04:52:03;3.77;78.98
77839;SHT31;67034;43.226;27.932;2023-12-20T04:54:29;3.87;79.00
77839;SHT31;67034;43.226;27.932;2023-12-20T04:56:56;3.88;78.74
77839;SHT31;67034;43.226;27.932;2023-12-20T04:59:22;3.85;78.71
77839;SHT31;67034;43.226;27.932;2023-12-20T05:01:47;3.82;78.62
77839;SHT31;67034;43.226;27.932;2023-12-20T05:04:13;3.85;78.75
77839;SHT31;67034;43.226;27.932;2023-12-20T05:06:39;3.84;78.67
77839;SHT31;67034;43.226;27.932;2023-12-20T05:09:04;3.84;78.70
77839;SHT31;67034;43.226;27.932;2023-12-20T05:11:30;3.84;78.66
77839;SHT31;67034;43.226;27.932;2023-12-20T05:13:57;3.80;78.68
77839;SHT31;67034;43.226;27.932;2023-12-20T05:16:23;3.87;78.69
77839;SHT31;67034;43.226;27.932;2023-12-20T05:18:49;3.87;78.64
77839;SHT31;67034;43.226;27.932;2023-12-20T05:21:18;3.88;78.56
77839;SHT31;67034;43.226;27.932;2023-12-20T05:23:44;3.94;78.47
77839;SHT31;67034;43.226;27.932;2023-12-20T05:26:09;3.92;78.41
77839;SHT31;67034;43.226;27.932;2023-12-20T05:28:35;3.92;78.39
77839;SHT31;67034;43.226;27.932;2023-12-20T05:31:02;3.95;78.25
77839;SHT31;67034;43.226;27.932;2023-12-20T05:33:28;3.97;78.16
77839;SHT31;67034;43.226;27.932;2023-12-20T05:35:54;3.91;78.05
77839;SHT31;67034;43.226;27.932;2023-12-20T05:38:20;3.84;78.22
77839;SHT31;67034;43.226;27.932;2023-12-20T05:40:46;3.80;78.20
77839;SHT31;67034;43.226;27.932;2023-12-20T05:43:11;3.77;78.24
77839;SHT31;67034;43.226;27.932;2023-12-20T05:45:37;3.75;78.28
77839;SHT31;67034;43.226;27.932;2023-12-20T05:48:05;3.71;78.33
77839;SHT31;67034;43.226;27.932;2023-12-20T05:50:31;3.74;78.46
77839;SHT31;67034;43.226;27.932;2023-12-20T05:52:57;3.78;78.33
77839;SHT31;67034;43.226;27.932;2023-12-20T05:55:22;3.77;78.28
77839;SHT31;67034;43.226;27.932;2023-12-20T05:57:48;3.78;78.29
77839;SHT31;67034;43.226;27.932;2023-12-20T06:00:15;3.74;78.17
77839;SHT31;67034;43.226;27.932;2023-12-20T06:02:41;3.84;78.36
77839;SHT31;67034;43.226;27.932;2023-12-20T06:05:08;3.85;78.25
77839;SHT31;67034;43.226;27.932;2023-12-20T06:07:34;3.91;78.30
77839;SHT31;67034;43.226;27.932;2023-12-20T06:09:59;3.90;78.18
77839;SHT31;67034;43.226;27.932;2023-12-20T06:12:25;3.94;78.23
77839;SHT31;67034;43.226;27.932;2023-12-20T06:14:53;4.05;78.24
77839;SHT31;67034;43.226;27.932;2023-12-20T06:17:19;4.15;78.10
77839;SHT31;67034;43.226;27.932;2023-12-20T06:19:45;4.26;77.94
77839;SHT31;67034;43.226;27.932;2023-12-20T06:22:15;4.36;77.80
77839;SHT31;67034;43.226;27.932;2023-12-20T06:24:41;4.43;77.70
77839;SHT31;67034;43.226;27.932;2023-12-20T06:27:06;4.49;77.71
77839;SHT31;67034;43.226;27.932;2023-12-20T06:29:32;4.59;77.59
77839;SHT31;67034;43.226;27.932;2023-12-20T06:31:58;4.69;77.31
77839;SHT31;67034;43.226;27.932;2023-12-20T06:34:23;4.85;77.22
77839;SHT31;67034;43.226;27.932;2023-12-20T06:36:49;5.07;76.99
77839;SHT31;67034;43.226;27.932;2023-12-20T06:39:16;5.10;76.35
77839;SHT31;67034;43.226;27.932;2023-12-20T06:41:42;5.12;76.50
77839;SHT31;67034;43.226;27.932;2023-12-20T06:44:08;5.19;76.50
77839;SHT31;67034;43.226;27.932;2023-12-20T06:46:34;5.27;76.36
77839;SHT31;67034;43.226;27.932;2023-12-20T06:49:00;5.32;76.34
77839;SHT31;67034;43.226;27.932;2023-12-20T06:51:26;5.38;76.41
77839;SHT31;67034;43.226;27.932;2023-12-20T06:53:52;5.56;76.27
77839;SHT31;67034;43.226;27.932;2023-12-20T06:56:19;5.76;76.08
77839;SHT31;67034;43.226;27.932;2023-12-20T06:58:45;5.91;75.92
77839;SHT31;67034;43.226;27.932;2023-12-20T07:01:11;6.07;75.59
77839;SHT31;67034;43.226;27.932;2023-12-20T07:03:37;6.20;75.46
77839;SHT31;67034;43.226;27.932;2023-12-20T07:06:03;6.39;75.32
77839;SHT31;67034;43.226;27.932;2023-12-20T07:08:29;6.55;74.93
77839;SHT31;67034;43.226;27.932;2023-12-20T07:10:55;6.72;74.63
77839;SHT31;67034;43.226;27.932;2023-12-20T07:13:22;6.86;74.58
77839;SHT31;67034;43.226;27.932;2023-12-20T07:15:48;7.11;74.15
77839;SHT31;67034;43.226;27.932;2023-12-20T07:18:13;7.27;73.93
77839;SHT31;67034;43.226;27.932;2023-12-20T07:20:39;7.50;73.56
77839;SHT31;67034;43.226;27.932;2023-12-20T07:23:05;7.69;73.19
77839;SHT31;67034;43.226;27.932;2023-12-20T07:25:30;7.85;72.92
77839;SHT31;67034;43.226;27.932;2023-12-20T07:27:58;8.09;72.46
77839;SHT31;67034;43.226;27.932;2023-12-20T07:30:25;8.41;72.05
77839;SHT31;67034;43.226;27.932;2023-12-20T07:32:50;8.67;71.47
77839;SHT31;67034;43.226;27.932;2023-12-20T07:35:18;8.91;70.68
77839;SHT31;67034;43.226;27.932;2023-12-20T07:37:43;9.19;69.55
77839;SHT31;67034;43.226;27.932;2023-12-20T07:40:10;9.50;68.49
77839;SHT31;67034;43.226;27.932;2023-12-20T07:42:35;9.81;67.52
77839;SHT31;67034;43.226;27.932;2023-12-20T07:45:01;10.08;66.38
77839;SHT31;67034;43.226;27.932;2023-12-20T07:47:29;10.39;65.29
77839;SHT31;67034;43.226;27.932;2023-12-20T07:49:57;10.70;63.79
77839;SHT31;67034;43.226;27.932;2023-12-20T07:52:23;11.04;62.48
77839;SHT31;67034;43.226;27.932;2023-12-20T07:54:48;11.34;60.74
77839;SHT31;67034;43.226;27.932;2023-12-20T07:57:14;11.59;59.71
77839;SHT31;67034;43.226;27.932;2023-12-20T07:59:40;11.89;58.95
77839;SHT31;67034;43.226;27.932;2023-12-20T08:02:05;12.07;57.27
77839;SHT31;67034;43.226;27.932;2023-12-20T08:04:33;12.28;56.90
77839;SHT31;67034;43.226;27.932;2023-12-20T08:06:59;12.42;57.04
77839;SHT31;67034;43.226;27.932;2023-12-20T08:09:25;12.56;55.99
77839;SHT31;67034;43.226;27.932;2023-12-20T08:11:51;12.78;55.40
77839;SHT31;67034;43.226;27.932;2023-12-20T08:14:17;12.92;54.45
77839;SHT31;67034;43.226;27.932;2023-12-20T08:16:43;13.09;53.88
77839;SHT31;67034;43.226;27.932;2023-12-20T08:19:08;13.26;53.41
77839;SHT31;67034;43.226;27.932;2023-12-20T08:21:35;13.40;52.95
77839;SHT31;67034;43.226;27.932;2023-12-20T08:24:01;13.54;52.84
77839;SHT31;67034;43.226;27.932;2023-12-20T08:26:27;13.75;52.59
77839;SHT31;67034;43.226;27.932;2023-12-20T08:28:53;13.91;52.02
77839;SHT31;67034;43.226;27.932;2023-12-20T08:31:19;14.09;51.49
77839;SHT31;67034;43.226;27.932;2023-12-20T08:33:45;14.18;50.11
77839;SHT31;67034;43.226;27.932;2023-12-20T08:36:11;14.39;49.63
77839;SHT31;67034;43.226;27.932;2023-12-20T08:38:39;14.64;49.40
77839;SHT31;67034;43.226;27.932;2023-12-20T08:41:05;14.88;48.71
77839;SHT31;67034;43.226;27.932;2023-12-20T08:43:34;15.11;48.36
77839;SHT31;67034;43.226;27.932;2023-12-20T08:46:00;15.26;47.42
77839;SHT31;67034;43.226;27.932;2023-12-20T08:48:26;15.53;47.34
77839;SHT31;67034;43.226;27.932;2023-12-20T08:50:51;15.80;47.31
77839;SHT31;67034;43.226;27.932;2023-12-20T08:53:17;16.01;46.74
77839;SHT31;67034;43.226;27.932;2023-12-20T08:55:45;16.14;46.54
77839;SHT31;67034;43.226;27.932;2023-12-20T08:58:11;16.20;46.35
77839;SHT31;67034;43.226;27.932;2023-12-20T09:00:37;16.35;46.18
77839;SHT31;67034;43.226;27.932;2023-12-20T09:03:04;16.52;46.06
77839;SHT31;67034;43.226;27.932;2023-12-20T09:05:30;16.56;45.48
77839;SHT31;67034;43.226;27.932;2023-12-20T09:07:56;16.68;45.55
77839;SHT31;67034;43.226;27.932;2023-12-20T09:10:21;16.82;45.14
77839;SHT31;67034;43.226;27.932;2023-12-20T09:12:49;16.87;45.07
77839;SHT31;67034;43.226;27.932;2023-12-20T09:15:15;16.86;44.88
77839;SHT31;67034;43.226;27.932;2023-12-20T09:17:48;16.96;45.00
77839;SHT31;67034;43.226;27.932;2023-12-20T09:20:14;17.09;44.48
77839;SHT31;67034;43.226;27.932;2023-12-20T09:22:40;17.28;44.24
77839;SHT31;67034;43.226;27.932;2023-12-20T09:25:09;17.44;43.93
77839;SHT31;67034;43.226;27.932;2023-12-20T09:27:35;17.64;43.66
77839;SHT31;67034;43.226;27.932;2023-12-20T09:30:03;17.74;42.97
77839;SHT31;67034;43.226;27.932;2023-12-20T09:32:30;17.89;42.90
77839;SHT31;67034;43.226;27.932;2023-12-20T09:34:56;17.86;42.55
77839;SHT31;67034;43.226;27.932;2023-12-20T09:37:22;17.90;42.34
77839;SHT31;67034;43.226;27.932;2023-12-20T09:39:47;18.02;42.15
77839;SHT31;67034;43.226;27.932;2023-12-20T09:42:16;18.14;41.89
77839;SHT31;67034;43.226;27.932;2023-12-20T09:44:44;18.22;41.73
77839;SHT31;67034;43.226;27.932;2023-12-20T09:47:12;18.37;41.70
77839;SHT31;67034;43.226;27.932;2023-12-20T09:49:37;18.53;41.27
77839;SHT31;67034;43.226;27.932;2023-12-20T09:52:05;18.77;40.88
77839;SHT31;67034;43.226;27.932;2023-12-20T09:54:33;18.85;40.13
77839;SHT31;67034;43.226;27.932;2023-12-20T09:56:59;19.04;40.29
77839;SHT31;67034;43.226;27.932;2023-12-20T09:59:25;19.04;39.89
77839;SHT31;67034;43.226;27.932;2023-12-20T10:01:51;19.08;39.53
77839;SHT31;67034;43.226;27.932;2023-12-20T10:04:21;19.23;39.27
77839;SHT31;67034;43.226;27.932;2023-12-20T10:06:47;19.30;39.08
77839;SHT31;67034;43.226;27.932;2023-12-20T10:09:13;19.15;38.76
77839;SHT31;67034;43.226;27.932;2023-12-20T10:11:40;18.94;38.23
77839;SHT31;67034;43.226;27.932;2023-12-20T10:14:06;18.65;38.95
77839;SHT31;67034;43.226;27.932;2023-12-20T10:16:33;18.44;38.72
77839;SHT31;67034;43.226;27.932;2023-12-20T10:19:00;18.13;39.12
77839;SHT31;67034;43.226;27.932;2023-12-20T10:21:31;17.86;39.32
77839;SHT31;67034;43.226;27.932;2023-12-20T10:23:57;17.40;40.29
77839;SHT31;67034;43.226;27.932;2023-12-20T10:26:25;17.41;41.05
77839;SHT31;67034;43.226;27.932;2023-12-20T10:28:53;17.35;41.01
77839;SHT31;67034;43.226;27.932;2023-12-20T10:31:29;17.38;41.38
77839;SHT31;67034;43.226;27.932;2023-12-20T10:33:56;17.50;41.35
77839;SHT31;67034;43.226;27.932;2023-12-20T10:36:23;17.72;41.33
77839;SHT31;67034;43.226;27.932;2023-12-20T10:38:52;18.06;41.31
77839;SHT31;67034;43.226;27.932;2023-12-20T10:41:25;18.32;41.01
77839;SHT31;67034;43.226;27.932;2023-12-20T10:43:51;18.51;40.82
77839;SHT31;67034;43.226;27.932;2023-12-20T10:46:18;18.74;40.80
77839;SHT31;67034;43.226;27.932;2023-12-20T10:48:45;18.97;40.98
77839;SHT31;67034;43.226;27.932;2023-12-20T10:51:13;19.26;40.69
77839;SHT31;67034;43.226;27.932;2023-12-20T10:53:40;19.57;40.01
77839;SHT31;67034;43.226;27.932;2023-12-20T10:56:08;19.74;39.82
77839;SHT31;67034;43.226;27.932;2023-12-20T10:58:36;19.87;39.82
77839;SHT31;67034;43.226;27.932;2023-12-20T11:01:06;19.62;38.96
77839;SHT31;67034;43.226;27.932;2023-12-20T11:03:35;19.35;39.37
77839;SHT31;67034;43.226;27.932;2023-12-20T11:06:05;18.88;39.96
77839;SHT31;67034;43.226;27.932;2023-12-20T11:08:36;18.57;40.44
77839;SHT31;67034;43.226;27.932;2023-12-20T11:11:08;18.53;40.59
77839;SHT31;67034;43.226;27.932;2023-12-20T11:13:41;18.30;40.21
77839;SHT31;67034;43.226;27.932;2023-12-20T11:16:09;18.02;40.31
77839;SHT31;67034;43.226;27.932;2023-12-20T11:18:35;17.71;40.66
77839;SHT31;67034;43.226;27.932;2023-12-20T11:21:02;17.72;41.02
77839;SHT31;67034;43.226;27.932;2023-12-20T11:23:30;17.79;41.05
77839;SHT31;67034;43.226;27.932;2023-12-20T11:25:58;18.00;40.71
77839;SHT31;67034;43.226;27.932;2023-12-20T11:28:26;18.20;40.51
77839;SHT31;67034;43.226;27.932;2023-12-20T11:30:53;18.63;40.18
77839;SHT31;67034;43.226;27.932;2023-12-20T11:33:23;18.85;39.41
77839;SHT31;67034;43.226;27.932;2023-12-20T11:35:49;18.83;40.12
77839;SHT31;67034;43.226;27.932;2023-12-20T11:38:15;18.95;40.69
77839;SHT31;67034;43.226;27.932;2023-12-20T11:40:41;19.02;41.22
77839;SHT31;67034;43.226;27.932;2023-12-20T11:43:30;19.06;42.27
77839;SHT31;67034;43.226;27.932;2023-12-20T11:46:02;19.11;43.09
77839;SHT31;67034;43.226;27.932;2023-12-20T11:48:30;19.37;43.05
77839;SHT31;67034;43.226;27.932;2023-12-20T11:50:56;19.46;42.25
77839;SHT31;67034;43.226;27.932;2023-12-20T11:53:22;19.53;42.22
77839;SHT31;67034;43.226;27.932;2023-12-20T11:55:48;19.88;41.39
77839;SHT31;67034;43.226;27.932;2023-12-20T11:58:14;20.00;40.20
77839;SHT31;67034;43.226;27.932;2023-12-20T12:00:43;20.21;39.97
77839;SHT31;67034;43.226;27.932;2023-12-20T12:03:09;20.53;39.53
77839;SHT31;67034;43.226;27.932;2023-12-20T12:05:35;21.06;39.26
77839;SHT31;67034;43.226;27.932;2023-12-20T12:08:01;21.57;38.69
77839;SHT31;67034;43.226;27.932;2023-12-20T12:10:28;21.96;38.12
77839;SHT31;67034;43.226;27.932;2023-12-20T12:12:54;22.20;37.49
77839;SHT31;67034;43.226;27.932;2023-12-20T12:15:20;22.46;36.74
77839;SHT31;67034;43.226;27.932;2023-12-20T12:17:54;23.12;35.72
77839;SHT31;67034;43.226;27.932;2023-12-20T12:20:20;23.78;34.80
77839;SHT31;67034;43.226;27.932;2023-12-20T12:22:46;23.94;34.74
77839;SHT31;67034;43.226;27.932;2023-12-20T12:25:22;24.75;34.06
77839;SHT31;67034;43.226;27.932;2023-12-20T12:27:48;25.84;33.02
77839;SHT31;67034;43.226;27.932;2023-12-20T12:30:16;26.58;32.00
77839;SHT31;67034;43.226;27.932;2023-12-20T12:32:43;27.05;31.32
77839;SHT31;67034;43.226;27.932;2023-12-20T12:35:11;27.77;30.58
77839;SHT31;67034;43.226;27.932;2023-12-20T12:37:38;29.02;29.56
77839;SHT31;67034;43.226;27.932;2023-12-20T12:40:10;29.45;28.25
77839;SHT31;67034;43.226;27.932;2023-12-20T12:42:36;28.59;28.70
77839;SHT31;67034;43.226;27.932;2023-12-20T12:45:02;28.77;28.55
77839;SHT31;67034;43.226;27.932;2023-12-20T12:47:28;29.17;28.00
77839;SHT31;67034;43.226;27.932;2023-12-20T12:49:54;29.84;27.49
77839;SHT31;67034;43.226;27.932;2023-12-20T12:52:21;30.32;27.05
77839;SHT31;67034;43.226;27.932;2023-12-20T12:54:46;29.90;27.41
77839;SHT31;67034;43.226;27.932;2023-12-20T12:57:13;29.61;27.63
77839;SHT31;67034;43.226;27.932;2023-12-20T12:59:39;29.81;27.38
77839;SHT31;67034;43.226;27.932;2023-12-20T13:02:05;29.82;27.26
77839;SHT31;67034;43.226;27.932;2023-12-20T13:04:31;29.62;27.40
77839;SHT31;67034;43.226;27.932;2023-12-20T13:06:56;29.74;27.38
77839;SHT31;67034;43.226;27.932;2023-12-20T13:09:24;29.79;27.29
77839;SHT31;67034;43.226;27.932;2023-12-20T13:11:50;29.68;27.46
77839;SHT31;67034;43.226;27.932;2023-12-20T13:14:15;29.33;27.90
77839;SHT31;67034;43.226;27.932;2023-12-20T13:16:42;28.75;28.50
77839;SHT31;67034;43.226;27.932;2023-12-20T13:19:08;28.29;29.18
77839;SHT31;67034;43.226;27.932;2023-12-20T13:21:35;28.05;29.61
77839;SHT31;67034;43.226;27.932;2023-12-20T13:24:01;27.90;30.07
77839;SHT31;67034;43.226;27.932;2023-12-20T13:26:28;27.53;30.38
77839;SHT31;67034;43.226;27.932;2023-12-20T13:28:54;26.20;31.85
77839;SHT31;67034;43.226;27.932;2023-12-20T13:31:20;24.53;33.99
77839;SHT31;67034;43.226;27.932;2023-12-20T13:33:45;22.87;36.13
77839;SHT31;67034;43.226;27.932;2023-12-20T13:36:12;21.58;38.09
77839;SHT31;67034;43.226;27.932;2023-12-20T13:38:46;20.39;40.20
77839;SHT31;67034;43.226;27.932;2023-12-20T13:41:12;19.53;41.71
77839;SHT31;67034;43.226;27.932;2023-12-20T13:43:39;18.85;42.99
77839;SHT31;67034;43.226;27.932;2023-12-20T13:46:05;18.09;44.66
77839;SHT31;67034;43.226;27.932;2023-12-20T13:48:31;17.50;45.89
77839;SHT31;67034;43.226;27.932;2023-12-20T13:50:57;16.94;47.50
77839;SHT31;67034;43.226;27.932;2023-12-20T13:53:23;16.58;48.26
77839;SHT31;67034;43.226;27.932;2023-12-20T13:55:48;16.11;49.75
77839;SHT31;67034;43.226;27.932;2023-12-20T13:58:15;15.74;50.74
77839;SHT31;67034;43.226;27.932;2023-12-20T14:00:43;15.45;51.74
77839;SHT31;67034;43.226;27.932;2023-12-20T14:03:09;15.40;52.24
77839;SHT31;67034;43.226;27.932;2023-12-20T14:05:35;16.03;51.90
77839;SHT31;67034;43.226;27.932;2023-12-20T14:08:01;16.42;51.57
77839;SHT31;67034;43.226;27.932;2023-12-20T14:10:26;16.44;51.70
77839;SHT31;67034;43.226;27.932;2023-12-20T14:12:53;16.20;52.45
77839;SHT31;67034;43.226;27.932;2023-12-20T14:15:19;15.86;53.23
77839;SHT31;67034;43.226;27.932;2023-12-20T14:17:46;15.52;54.11
77839;SHT31;67034;43.226;27.932;2023-12-20T14:20:13;15.25;54.79
77839;SHT31;67034;43.226;27.932;2023-12-20T14:22:38;15.08;55.11
77839;SHT31;67034;43.226;27.932;2023-12-20T14:25:10;14.76;56.05
77839;SHT31;67034;43.226;27.932;2023-12-20T14:27:36;14.44;57.03
77839;SHT31;67034;43.226;27.932;2023-12-20T14:30:02;14.10;58.10
77839;SHT31;67034;43.226;27.932;2023-12-20T14:32:28;13.64;60.09
77839;SHT31;67034;43.226;27.932;2023-12-20T14:34:55;13.33;60.93
77839;SHT31;67034;43.226;27.932;2023-12-20T14:37:21;13.13;61.60
77839;SHT31;67034;43.226;27.932;2023-12-20T14:39:47;12.91;62.32
77839;SHT31;67034;43.226;27.932;2023-12-20T14:42:13;12.78;62.69
77839;SHT31;67034;43.226;27.932;2023-12-20T14:44:39;12.73;62.88
77839;SHT31;67034;43.226;27.932;2023-12-20T14:47:05;12.62;63.21
77839;SHT31;67034;43.226;27.932;2023-12-20T14:49:31;12.45;64.03
77839;SHT31;67034;43.226;27.932;2023-12-20T14:51:58;12.33;64.62
77839;SHT31;67034;43.226;27.932;2023-12-20T14:54:24;12.18;65.09
77839;SHT31;67034;43.226;27.932;2023-12-20T14:56:49;12.04;65.38
77839;SHT31;67034;43.226;27.932;2023-12-20T14:59:15;11.86;65.70
77839;SHT31;67034;43.226;27.932;2023-12-20T15:01:41;11.70;66.20
77839;SHT31;67034;43.226;27.932;2023-12-20T15:04:08;11.48;67.00
77839;SHT31;67034;43.226;27.932;2023-12-20T15:06:33;11.14;67.27
77839;SHT31;67034;43.226;27.932;2023-12-20T15:09:00;10.98;67.55
77839;SHT31;67034;43.226;27.932;2023-12-20T15:11:28;10.93;67.67
77839;SHT31;67034;43.226;27.932;2023-12-20T15:13:54;10.69;68.16
77839;SHT31;67034;43.226;27.932;2023-12-20T15:16:23;10.50;68.49
77839;SHT31;67034;43.226;27.932;2023-12-20T15:18:49;10.43;68.48